Time;durP1;ratioP1;P1;durP2;ratioP2;P2;SDS_P1;SDS_P2;PMS_P1;PMS_P2;Temp;Humidity;BMP_temperature;BMP_pressure;BME280_temperature;BME280_humidity;BME280_pressure;Samples;Min_cycle;Max_cycle;Signal;HPM_P1;HPM_P2
2024/01/14 00:01:59;;;;;;;9.80;6.30;;;;;;;1.36;62.13;98154.67;231621;199;137433;-59
2024/01/14 00:07:02;;;;;;;10.60;5.80;;;;;;;1.38;62.30;98149.86;231677;197;138880;-60
2024/01/14 00:12:06;;;;;;;9.30;6.10;;;;;;;1.34;62.78;98148.63;231773;198;154219;-59
2024/01/14 00:17:10;;;;;;;6.70;5.40;;;;;;;1.28;63.43;98141.70;231636;198;138043;-59
2024/01/14 00:22:16;;;;;;;9.10;5.70;;;;;;;1.24;64.10;98127.33;231810;205;137397;-60
2024/01/14 00:27:19;;;;;;;6.90;5.20;;;;;;;1.25;64.46;98122.58;231579;205;152949;-59
2024/01/14 00:32:23;;;;;;;8.50;6.40;;;;;;;1.26;64.76;98121.68;231607;198;137355;-59
2024/01/14 00:37:27;;;;;;;9.80;6.50;;;;;;;1.26;65.05;98116.77;231716;197;138965;-60
2024/01/14 00:42:30;;;;;;;11.00;6.50;;;;;;;1.27;65.33;98115.01;231709;198;153609;-59
2024/01/14 00:47:34;;;;;;;10.90;6.50;;;;;;;1.19;65.62;98112.16;231793;205;137496;-59
2024/01/14 00:52:37;;;;;;;7.60;4.90;;;;;;;1.19;66.37;98110.23;231964;197;137405;-59
2024/01/14 00:57:40;;;;;;;8.70;5.80;;;;;;;1.18;66.87;98104.33;231746;198;153438;-58
2024/01/14 01:02:44;;;;;;;7.70;5.80;;;;;;;1.28;66.99;98096.96;231356;198;143409;-59
2024/01/14 01:07:48;;;;;;;7.70;6.10;;;;;;;1.36;66.75;98086.15;231752;197;275365;-59
2024/01/14 01:12:51;;;;;;;8.50;6.10;;;;;;;1.34;66.64;98085.16;231679;202;153474;-58
2024/01/14 01:17:54;;;;;;;9.70;6.10;;;;;;;1.38;66.46;98071.23;231687;198;138146;-60
2024/01/14 01:22:57;;;;;;;9.60;6.30;;;;;;;1.48;66.24;98063.64;231780;197;137364;-59
2024/01/14 01:28:01;;;;;;;9.10;6.00;;;;;;;1.56;65.83;98057.36;231695;197;154484;-60
2024/01/14 01:33:05;;;;;;;11.30;6.30;;;;;;;1.59;65.61;98051.84;231536;198;137622;-59
2024/01/14 01:38:08;;;;;;;9.30;6.30;;;;;;;1.63;65.35;98038.17;231858;198;137541;-59
2024/01/14 01:43:11;;;;;;;7.90;5.80;;;;;;;1.62;65.06;98031.08;231761;205;153689;-59
2024/01/14 01:48:15;;;;;;;10.70;6.80;;;;;;;1.66;64.95;98027.61;231749;197;137453;-59
2024/01/14 01:53:25;;;;;;;10.40;6.30;;;;;;;1.65;64.80;98028.50;231738;197;137835;-59
2024/01/14 01:58:28;;;;;;;10.40;6.20;;;;;;;1.67;64.96;98022.14;231787;197;153303;-59
2024/01/14 02:03:33;;;;;;;9.30;6.50;;;;;;;1.61;64.83;98017.64;231701;205;136994;-59
2024/01/14 02:08:37;;;;;;;9.50;6.40;;;;;;;1.58;65.06;98013.59;231665;198;138434;-59
2024/01/14 02:13:40;;;;;;;8.60;6.60;;;;;;;1.58;64.97;98007.45;231804;198;153233;-59
2024/01/14 02:18:43;;;;;;;9.20;6.50;;;;;;;1.57;64.78;97996.33;231742;198;139807;-57
2024/01/14 02:23:52;;;;;;;7.40;6.10;;;;;;;1.58;64.74;97984.94;231682;197;137746;-57
2024/01/14 02:28:56;;;;;;;9.60;6.00;;;;;;;1.63;64.58;97981.53;231821;198;153407;-59
2024/01/14 02:33:59;;;;;;;9.70;6.30;;;;;;;1.64;64.57;97979.08;231615;198;139834;-60
2024/01/14 02:39:04;;;;;;;8.90;6.70;;;;;;;1.61;64.74;97975.33;231791;198;140081;-60
2024/01/14 02:44:08;;;;;;;8.30;6.40;;;;;;;1.65;65.08;97965.20;231678;198;153309;-60
2024/01/14 02:49:11;;;;;;;9.70;6.50;;;;;;;1.61;65.52;97960.48;231759;202;138172;-59
2024/01/14 02:54:15;;;;;;;8.30;6.30;;;;;;;1.58;66.03;97955.90;231667;198;137927;-60
2024/01/14 02:59:18;;;;;;;9.40;6.20;;;;;;;1.55;66.06;97936.79;231700;197;154586;-59
2024/01/14 03:04:22;;;;;;;7.80;5.90;;;;;;;1.58;66.32;97924.63;231756;197;138155;-59
2024/01/14 03:09:25;;;;;;;8.80;5.90;;;;;;;1.60;66.60;97909.30;231693;198;137559;-60
2024/01/14 03:14:28;;;;;;;10.10;5.70;;;;;;;1.68;66.71;97893.73;231899;198;153648;-59
2024/01/14 03:19:31;;;;;;;8.00;5.70;;;;;;;1.84;66.34;97885.69;231752;201;138680;-59
2024/01/14 03:24:35;;;;;;;8.50;5.80;;;;;;;1.88;65.97;97884.27;231786;199;138275;-58
2024/01/14 03:29:38;;;;;;;7.40;5.20;;;;;;;1.92;65.85;97877.48;231762;202;154878;-59
2024/01/14 03:34:41;;;;;;;7.40;5.70;;;;;;;1.90;65.29;97867.25;231930;205;138167;-59
2024/01/14 03:39:45;;;;;;;8.30;5.60;;;;;;;1.92;65.04;97858.24;231837;203;140199;-59
2024/01/14 03:44:49;;;;;;;9.40;5.60;;;;;;;1.90;64.76;97859.70;231852;200;154113;-59
2024/01/14 03:49:52;;;;;;;8.80;5.90;;;;;;;1.84;64.89;97867.84;231748;198;141809;-59
2024/01/14 03:54:56;;;;;;;7.20;5.20;;;;;;;1.79;65.01;97857.09;231620;198;138056;-59
2024/01/14 03:59:59;;;;;;;8.10;6.20;;;;;;;1.70;65.21;97859.41;231700;205;153117;-59
2024/01/14 04:05:03;;;;;;;8.80;6.40;;;;;;;1.61;65.75;97846.55;231647;202;137967;-60
2024/01/14 04:10:06;;;;;;;9.00;6.40;;;;;;;1.64;66.21;97848.63;231862;199;138443;-59
2024/01/14 04:15:10;;;;;;;7.70;5.90;;;;;;;1.62;66.69;97852.23;231805;198;154028;-58
2024/01/14 04:20:13;;;;;;;7.20;5.30;;;;;;;1.62;66.93;97846.80;231730;197;138852;-59
2024/01/14 04:25:16;;;;;;;10.80;6.10;;;;;;;1.71;67.16;97841.01;231927;201;137345;-60
2024/01/14 04:30:20;;;;;;;8.00;6.10;;;;;;;1.73;67.12;97850.16;231601;199;154929;-60
2024/01/14 04:35:23;;;;;;;8.00;5.90;;;;;;;1.78;66.97;97829.34;231727;199;138391;-59
2024/01/14 04:40:27;;;;;;;7.80;6.20;;;;;;;1.85;66.35;97815.85;231991;198;137773;-59
2024/01/14 04:45:30;;;;;;;7.10;5.40;;;;;;;1.85;66.39;97813.58;231753;201;153543;-60
2024/01/14 04:50:35;;;;;;;9.00;6.20;;;;;;;1.79;66.04;97825.58;231845;205;139882;-60
2024/01/14 04:55:39;;;;;;;9.10;5.90;;;;;;;1.82;66.35;97825.95;231872;203;137276;-60
2024/01/14 05:00:42;;;;;;;7.80;5.90;;;;;;;1.81;67.60;97821.33;231825;198;153309;-59
2024/01/14 05:05:46;;;;;;;8.90;5.90;;;;;;;1.76;68.62;97814.73;231834;198;140438;-59
2024/01/14 05:10:49;;;;;;;8.50;5.40;;;;;;;1.73;70.30;97819.06;231395;205;138780;-58
2024/01/14 05:15:52;;;;;;;6.70;5.50;;;;;;;1.75;70.84;97820.20;231897;205;154206;-59
2024/01/14 05:20:56;;;;;;;9.70;6.00;;;;;;;1.84;71.01;97820.83;231725;199;137659;-58
2024/01/14 05:26:03;;;;;;;7.80;5.90;;;;;;;1.87;70.83;97817.36;231799;197;137756;-60
2024/01/14 05:31:06;;;;;;;8.50;6.10;;;;;;;1.81;71.05;97816.04;231797;198;153603;-59
2024/01/14 05:36:10;;;;;;;7.10;5.40;;;;;;;1.78;71.36;97820.40;231693;202;137285;-57
2024/01/14 05:41:13;;;;;;;7.30;5.90;;;;;;;1.72;71.66;97819.45;231819;199;137793;-60
2024/01/14 05:46:17;;;;;;;10.00;6.10;;;;;;;1.66;72.36;97822.34;231984;198;153997;-60
2024/01/14 05:51:20;;;;;;;7.90;5.70;;;;;;;1.63;72.73;97829.09;231719;198;138447;-60
2024/01/14 05:56:26;;;;;;;7.60;5.80;;;;;;;1.70;73.22;97829.19;231826;197;141790;-59
2024/01/14 06:01:29;;;;;;;;;;;;;;;1.73;73.57;97834.09;231786;198;153614;-60
2024/01/14 06:06:33;;;;;;;6.80;5.40;;;;;;;1.74;73.70;97830.20;231740;206;137203;-60
2024/01/14 06:11:39;;;;;;;9.30;6.10;;;;;;;1.77;73.61;97817.50;231895;201;141711;-59
2024/01/14 06:16:42;;;;;;;7.40;5.70;;;;;;;1.80;73.61;97814.38;231903;197;153949;-59
2024/01/14 06:21:46;;;;;;;7.90;5.70;;;;;;;1.79;73.40;97822.81;231764;198;137255;-59
2024/01/14 06:26:52;;;;;;;5.90;4.70;;;;;;;1.75;73.43;97819.31;231829;198;138650;-59
2024/01/14 06:31:55;;;;;;;;;;;;;;;1.71;73.52;97822.28;231798;198;153118;-60
2024/01/14 06:36:58;;;;;;;6.90;4.90;;;;;;;1.78;73.23;97819.86;231823;205;137415;-60
2024/01/14 06:42:02;;;;;;;6.50;5.60;;;;;;;1.85;73.05;97821.85;231713;198;138467;-59
2024/01/14 06:47:05;;;;;;;8.50;6.10;;;;;;;1.87;73.04;97829.79;231891;198;154033;-60
2024/01/14 06:52:09;;;;;;;9.60;5.10;;;;;;;1.91;73.14;97829.25;231969;202;137358;-60
2024/01/14 06:57:12;;;;;;;8.10;6.00;;;;;;;1.96;72.86;97822.69;231916;198;138278;-59
2024/01/14 07:02:15;;;;;;;7.50;5.80;;;;;;;2.00;72.78;97816.75;231820;203;154029;-59
2024/01/14 07:07:18;;;;;;;8.10;5.80;;;;;;;1.98;72.72;97814.59;231712;198;137992;-60
2024/01/14 07:12:22;;;;;;;9.70;6.40;;;;;;;2.04;73.08;97808.85;231696;206;137987;-56
2024/01/14 07:17:28;;;;;;;7.70;6.00;;;;;;;2.24;72.55;97804.25;231738;198;155041;-55
2024/01/14 07:22:52;;;;;;;8.00;5.80;;;;;;;2.29;71.88;97799.96;231918;198;138408;-51
2024/01/14 07:27:56;;;;;;;10.60;6.30;;;;;;;2.34;71.50;97811.11;231761;198;137181;-55
2024/01/14 07:32:59;;;;;;;8.30;6.00;;;;;;;2.32;71.21;97801.38;231808;201;155077;-57
2024/01/14 07:38:02;;;;;;;9.30;6.30;;;;;;;2.29;71.18;97799.06;231855;202;151186;-55
2024/01/14 07:43:06;;;;;;;8.90;6.60;;;;;;;2.30;71.07;97793.77;231651;199;142201;-56
2024/01/14 07:48:09;;;;;;;8.80;6.50;;;;;;;2.34;71.07;97783.09;231806;202;152986;-54
2024/01/14 07:53:13;;;;;;;9.90;6.70;;;;;;;2.40;70.71;97784.91;231741;197;137978;-54
2024/01/14 07:58:17;;;;;;;11.30;7.30;;;;;;;2.50;71.24;97784.23;231465;205;137839;-58
2024/01/14 08:03:21;;;;;;;10.30;6.10;;;;;;;2.62;70.52;97782.77;231783;197;153517;-56
2024/01/14 08:08:24;;;;;;;13.50;8.50;;;;;;;2.74;70.07;97783.72;231705;205;138468;-56
2024/01/14 08:13:28;;;;;;;9.50;6.00;;;;;;;2.79;69.68;97788.17;231729;202;137209;-56
2024/01/14 08:18:32;;;;;;;8.80;6.50;;;;;;;2.82;69.32;97780.17;231756;198;153907;-56
2024/01/14 08:23:36;;;;;;;12.60;6.90;;;;;;;2.83;69.43;97778.38;231692;198;137696;-57
2024/01/14 08:28:39;;;;;;;10.80;6.80;;;;;;;2.80;69.40;97785.02;231837;205;137271;-62
2024/01/14 08:33:43;;;;;;;10.50;7.50;;;;;;;2.85;69.75;97778.06;231892;198;153233;-58
2024/01/14 08:38:47;;;;;;;8.90;6.70;;;;;;;2.87;69.85;97777.63;231774;198;140507;-56
2024/01/14 08:43:51;;;;;;;8.70;6.00;;;;;;;2.81;69.89;97784.61;231720;201;137642;-53
2024/01/14 08:48:54;;;;;;;7.70;5.80;;;;;;;2.77;70.30;97792.17;231451;206;153950;-53
2024/01/14 08:54:00;;;;;;;10.60;6.80;;;;;;;2.68;70.58;97796.64;231738;197;138814;-53
2024/01/14 08:59:04;;;;;;;10.10;6.60;;;;;;;2.67;70.58;97794.60;231708;199;142948;-53
2024/01/14 09:04:07;;;;;;;11.30;7.10;;;;;;;2.79;70.23;97796.27;231724;199;154703;-53
2024/01/14 09:09:12;;;;;;;10.90;6.80;;;;;;;2.80;69.96;97794.10;231710;197;137520;-54
2024/01/14 09:14:15;;;;;;;11.50;7.00;;;;;;;2.82;69.62;97794.35;231723;199;141386;-54
2024/01/14 09:19:18;;;;;;;9.20;6.80;;;;;;;2.85;69.42;97791.39;231732;198;153703;-49
2024/01/14 09:24:22;;;;;;;10.70;7.10;;;;;;;2.75;69.44;97793.66;231698;202;137805;-52
2024/01/14 09:29:25;;;;;;;10.20;6.30;;;;;;;2.63;69.65;97797.24;231760;197;137213;-54
2024/01/14 09:34:29;;;;;;;10.10;6.70;;;;;;;2.61;69.75;97792.45;231947;203;154682;-54
2024/01/14 09:39:32;;;;;;;9.50;6.60;;;;;;;2.58;69.80;97786.81;231720;198;140227;-54
2024/01/14 09:44:36;;;;;;;14.10;6.50;;;;;;;2.53;69.76;97793.33;231756;205;138004;-52
2024/01/14 09:49:41;;;;;;;11.20;7.30;;;;;;;2.51;69.70;97793.80;231747;202;153266;-53
2024/01/14 09:54:45;;;;;;;170.20;105.60;;;;;;;2.56;69.96;97793.20;231748;198;138666;-49
2024/01/14 09:59:52;;;;;;;11.20;7.70;;;;;;;2.62;69.47;97790.47;231866;201;138037;-52
2024/01/14 10:04:56;;;;;;;12.90;7.40;;;;;;;2.65;69.06;97795.55;231948;199;154998;-52
2024/01/14 10:09:59;;;;;;;15.40;7.10;;;;;;;2.70;68.65;97793.73;231811;198;137299;-51
2024/01/14 10:15:04;;;;;;;12.10;7.00;;;;;;;2.78;68.19;97797.17;231664;198;138382;-53
2024/01/14 10:20:08;;;;;;;12.30;7.30;;;;;;;2.81;67.76;97793.16;231742;199;153357;-55
2024/01/14 10:25:11;;;;;;;10.10;7.00;;;;;;;2.88;67.49;97791.79;231839;198;140513;-52
2024/01/14 10:30:14;;;;;;;9.60;6.50;;;;;;;2.94;67.39;97796.38;231723;202;137894;-53
2024/01/14 10:35:18;;;;;;;12.30;7.70;;;;;;;2.90;66.94;97803.56;231766;205;153236;-52
2024/01/14 10:40:22;;;;;;;57.80;33.20;;;;;;;2.85;67.07;97804.20;231855;198;138452;-51
2024/01/14 10:45:26;;;;;;;12.80;7.50;;;;;;;2.93;67.07;97798.17;231751;202;140942;-50
2024/01/14 10:50:32;;;;;;;11.10;7.00;;;;;;;2.90;66.84;97780.48;231498;198;153156;-53
2024/01/14 10:56:01;;;;;;;12.20;7.10;;;;;;;2.96;66.39;97774.03;231799;203;138539;-52
2024/01/14 11:01:07;;;;;;;14.90;8.20;;;;;;;3.10;66.04;97767.68;231975;198;138495;-55
2024/01/14 11:06:12;;;;;;;10.80;7.00;;;;;;;3.21;65.76;97758.53;231759;202;153156;-55
2024/01/14 11:11:18;;;;;;;12.70;7.20;;;;;;;3.19;65.55;97754.05;231745;198;138025;-53
2024/01/14 11:16:33;;;;;;;12.90;7.70;;;;;;;3.25;65.29;97752.84;231883;203;140302;-53
2024/01/14 11:21:56;;;;;;;12.60;7.10;;;;;;;3.25;65.00;97757.40;231525;200;153871;-54
2024/01/14 11:27:23;;;;;;;11.10;8.00;;;;;;;3.34;65.26;97759.42;231775;197;139674;-54
2024/01/14 11:32:27;;;;;;;10.30;6.90;;;;;;;3.35;65.07;97759.34;231677;198;137690;-55
2024/01/14 11:37:47;;;;;;;12.00;8.00;;;;;;;3.30;65.11;97754.52;231704;205;153016;-56
2024/01/14 11:42:56;;;;;;;17.70;11.80;;;;;;;3.34;65.65;97750.82;231761;198;141124;-54
2024/01/14 11:48:03;;;;;;;16.50;8.90;;;;;;;3.37;65.15;97746.59;231774;198;137667;-56
2024/01/14 11:53:08;;;;;;;11.70;6.70;;;;;;;3.38;64.61;97738.70;231692;199;153338;-41
2024/01/14 11:58:14;;;;;;;11.80;7.20;;;;;;;3.58;66.06;97747.45;231837;202;137459;-59
2024/01/14 12:03:19;;;;;;;12.90;7.90;;;;;;;3.64;64.34;97744.80;231537;202;138371;-56
2024/01/14 12:08:23;;;;;;;9.00;6.80;;;;;;;3.64;63.98;97744.31;231598;206;153392;-58
2024/01/14 12:13:26;;;;;;;10.60;6.90;;;;;;;3.66;64.11;97732.95;231584;205;138666;-58
2024/01/14 12:18:40;;;;;;;12.10;7.70;;;;;;;3.61;64.69;97736.56;231839;197;137420;-58
2024/01/14 12:23:49;;;;;;;10.10;6.80;;;;;;;3.54;65.23;97729.02;231550;202;154667;-58
2024/01/14 12:28:53;;;;;;;10.70;6.90;;;;;;;3.48;65.68;97745.14;231776;198;142661;-58
2024/01/14 12:33:56;;;;;;;9.90;6.80;;;;;;;3.40;66.28;97746.81;231679;205;138162;-59
2024/01/14 12:39:03;;;;;;;11.70;7.20;;;;;;;3.35;66.85;97745.67;231590;199;155116;-58
2024/01/14 12:44:06;;;;;;;12.30;6.90;;;;;;;3.37;67.21;97744.34;231799;205;138559;-59
2024/01/14 12:49:10;;;;;;;9.40;6.90;;;;;;;3.38;67.57;97747.24;231735;202;141300;-58
2024/01/14 12:54:18;;;;;;;83.50;53.70;;;;;;;3.24;68.65;97746.09;231807;205;153282;-58
2024/01/14 12:59:32;;;;;;;13.90;8.80;;;;;;;3.29;68.75;97745.80;231697;198;137333;-58
2024/01/14 13:04:36;;;;;;;12.40;7.80;;;;;;;3.26;68.29;97747.39;231873;198;137703;-57
2024/01/14 13:09:40;;;;;;;11.90;7.60;;;;;;;3.29;67.98;97746.19;231704;198;153577;-58
2024/01/14 13:14:44;;;;;;;27.00;16.30;;;;;;;3.28;68.43;97748.02;231638;198;138311;-58
2024/01/14 13:19:47;;;;;;;12.40;8.20;;;;;;;3.25;67.97;97747.77;231638;198;139464;-59
2024/01/14 13:24:50;;;;;;;11.90;7.20;;;;;;;3.19;68.26;97747.23;231690;199;153588;-58
2024/01/14 13:29:53;;;;;;;9.70;6.60;;;;;;;3.18;68.19;97745.16;231703;197;142018;-59
2024/01/14 13:34:57;;;;;;;9.30;6.50;;;;;;;3.26;67.90;97738.59;231813;198;137901;-59
2024/01/14 13:40:02;;;;;;;8.70;6.00;;;;;;;3.31;67.55;97747.30;231690;205;156003;-58
2024/01/14 13:45:06;;;;;;;11.10;7.20;;;;;;;3.31;67.70;97747.13;231779;198;138904;-59
2024/01/14 13:50:10;;;;;;;30.50;24.50;;;;;;;3.42;67.76;97757.05;231688;202;140455;-55
2024/01/14 13:55:14;;;;;;;12.40;8.40;;;;;;;3.54;68.67;97762.16;231647;206;153228;-56
2024/01/14 14:00:17;;;;;;;11.50;7.20;;;;;;;3.51;67.60;97757.95;231718;203;137397;-57
2024/01/14 14:05:20;;;;;;;11.40;7.00;;;;;;;3.47;67.51;97755.38;231674;202;138579;-56
2024/01/14 14:10:24;;;;;;;13.80;7.50;;;;;;;3.36;67.58;97750.90;231838;202;152980;-56
2024/01/14 14:15:27;;;;;;;13.50;8.00;;;;;;;3.30;67.66;97749.44;231613;199;140277;-57
2024/01/14 14:20:30;;;;;;;14.10;8.00;;;;;;;3.22;67.97;97751.47;231614;198;139126;-56
2024/01/14 14:25:34;;;;;;;13.60;7.30;;;;;;;3.16;68.43;97740.02;231511;198;153385;-60
2024/01/14 14:30:37;;;;;;;11.40;7.40;;;;;;;3.19;68.46;97733.95;231313;203;142124;-59
2024/01/14 14:35:41;;;;;;;12.10;7.70;;;;;;;3.27;68.22;97731.56;231564;201;138087;-64
2024/01/14 14:40:44;;;;;;;13.60;8.00;;;;;;;3.36;67.73;97732.81;231752;198;153198;-59
2024/01/14 14:45:47;;;;;;;13.50;8.70;;;;;;;3.41;67.25;97740.98;231547;197;138179;-61
2024/01/14 14:50:51;;;;;;;13.00;8.00;;;;;;;3.42;67.17;97741.42;231743;205;137719;-60
2024/01/14 14:55:54;;;;;;;16.30;9.20;;;;;;;3.53;68.63;97745.40;231644;202;153347;-60
2024/01/14 15:00:57;;;;;;;12.50;8.20;;;;;;;3.48;67.05;97744.80;231553;198;138287;-60
2024/01/14 15:06:01;;;;;;;12.40;8.20;;;;;;;3.38;67.19;97744.65;231669;198;138760;-62
2024/01/14 15:11:05;;;;;;;12.30;7.40;;;;;;;3.29;67.74;97743.67;231729;198;154079;-62
2024/01/14 15:16:10;;;;;;;12.40;8.20;;;;;;;3.19;68.18;97737.42;231702;197;138411;-60
2024/01/14 15:21:14;;;;;;;12.20;8.10;;;;;;;3.12;68.66;97744.64;231806;197;138288;-60
2024/01/14 15:26:23;;;;;;;13.40;8.30;;;;;;;2.99;69.13;97744.43;231601;205;153148;-60
2024/01/14 15:31:26;;;;;;;11.20;7.80;;;;;;;2.98;69.26;97745.90;231485;206;138691;-61
2024/01/14 15:36:30;;;;;;;11.80;7.90;;;;;;;3.01;69.41;97741.35;231695;198;138352;-61
2024/01/14 15:41:35;;;;;;;166.30;102.30;;;;;;;3.10;69.74;97734.21;231594;197;153032;-61
2024/01/14 15:46:38;;;;;;;16.30;10.20;;;;;;;3.21;69.34;97733.11;231745;197;138353;-60
2024/01/14 15:51:41;;;;;;;14.50;9.10;;;;;;;3.24;68.26;97733.83;231706;197;137358;-62
2024/01/14 15:56:44;;;;;;;14.10;9.00;;;;;;;3.19;68.08;97726.03;231630;199;153263;-62
2024/01/14 16:01:49;;;;;;;13.30;8.50;;;;;;;3.14;68.03;97719.46;231388;202;138762;-64
2024/01/14 16:06:53;;;;;;;15.70;9.40;;;;;;;3.13;67.73;97717.59;231521;203;138013;-62
2024/01/14 16:11:56;;;;;;;14.10;8.60;;;;;;;3.18;67.35;97714.32;231727;201;153149;-67
2024/01/14 16:16:59;;;;;;;12.80;8.50;;;;;;;3.13;67.19;97710.77;231883;202;138259;-65
2024/01/14 16:22:03;;;;;;;12.20;8.20;;;;;;;3.16;66.86;97699.38;231773;198;138803;-62
2024/01/14 16:27:06;;;;;;;13.80;8.70;;;;;;;3.14;66.64;97696.18;231576;202;153149;-63
2024/01/14 16:32:10;;;;;;;13.30;8.10;;;;;;;3.17;66.53;97689.00;231432;198;138187;-58
2024/01/14 16:37:13;;;;;;;20.00;11.90;;;;;;;3.28;66.56;97690.66;231659;202;137514;-64
2024/01/14 16:42:16;;;;;;;24.70;15.50;;;;;;;3.39;66.51;97681.85;231732;205;155071;-65
2024/01/14 16:47:20;;;;;;;14.90;9.70;;;;;;;3.52;65.85;97680.06;231671;198;137398;-64
2024/01/14 16:52:24;;;;;;;15.90;8.80;;;;;;;3.52;65.09;97674.94;231744;202;139679;-67
2024/01/14 16:57:28;;;;;;;16.70;8.90;;;;;;;3.49;64.97;97674.94;231487;198;154337;-67
2024/01/14 17:02:32;;;;;;;18.20;11.10;;;;;;;3.55;66.66;97672.16;231598;198;137468;-64
2024/01/14 17:07:35;;;;;;;16.00;9.90;;;;;;;3.67;64.83;97661.48;231629;198;138587;-63
2024/01/14 17:12:38;;;;;;;15.20;8.60;;;;;;;3.67;64.30;97657.11;231717;206;153038;-62
2024/01/14 17:17:42;;;;;;;14.10;9.00;;;;;;;3.65;63.92;97651.29;231690;198;137504;-64
2024/01/14 17:22:45;;;;;;;14.70;8.90;;;;;;;3.58;63.65;97648.17;231880;197;137167;-64
2024/01/14 17:27:48;;;;;;;15.30;8.70;;;;;;;3.55;63.55;97649.03;231702;198;153263;-64
2024/01/14 17:32:52;;;;;;;11.70;8.40;;;;;;;3.58;63.38;97650.30;231576;198;137395;-62
2024/01/14 17:37:55;;;;;;;13.10;8.70;;;;;;;3.56;63.10;97642.48;231667;205;138097;-63
2024/01/14 17:42:58;;;;;;;14.00;8.70;;;;;;;3.55;63.15;97636.75;231716;198;153181;-64
2024/01/14 17:48:02;;;;;;;14.30;8.40;;;;;;;3.57;63.04;97631.55;231617;198;138559;-62
2024/01/14 17:53:06;;;;;;;14.10;8.60;;;;;;;3.61;62.91;97637.69;231652;205;138144;-63
2024/01/14 17:58:10;;;;;;;14.80;9.10;;;;;;;3.63;62.99;97630.15;231718;205;154050;-61
2024/01/14 18:03:13;;;;;;;16.20;9.20;;;;;;;3.67;63.00;97631.50;231646;198;137711;-62
2024/01/14 18:08:17;;;;;;;18.50;10.00;;;;;;;3.66;62.90;97623.16;231555;199;138345;-63
2024/01/14 18:13:21;;;;;;;18.50;10.70;;;;;;;3.63;62.52;97613.73;231678;199;153815;-64
2024/01/14 18:18:24;;;;;;;16.80;10.30;;;;;;;3.61;62.48;97612.58;231650;205;138136;-65
2024/01/14 18:23:28;;;;;;;17.80;10.50;;;;;;;3.60;62.57;97615.27;231686;199;138280;-64
2024/01/14 18:28:31;;;;;;;178.90;113.10;;;;;;;3.69;64.40;97613.73;231752;198;154504;-64
2024/01/14 18:33:34;;;;;;;18.90;10.80;;;;;;;3.97;63.73;97608.40;231746;198;137591;-61
2024/01/14 18:38:39;;;;;;;16.60;9.60;;;;;;;3.92;62.03;97605.71;231634;198;138482;-60
2024/01/14 18:43:43;;;;;;;16.00;10.50;;;;;;;3.91;61.83;97598.93;231650;202;153076;-65
2024/01/14 18:48:46;;;;;;;21.80;10.80;;;;;;;3.97;61.54;97591.52;231576;197;140916;-64
2024/01/14 18:53:49;;;;;;;19.20;10.90;;;;;;;3.97;61.38;97585.39;231710;197;139734;-65
2024/01/14 18:58:53;;;;;;;18.10;10.60;;;;;;;3.93;61.38;97588.06;231704;199;153273;-62
2024/01/14 19:03:56;;;;;;;16.90;9.40;;;;;;;3.90;61.43;97587.91;231656;198;137671;-62
2024/01/14 19:09:00;;;;;;;14.40;9.50;;;;;;;3.84;61.48;97578.80;231714;198;138241;-63
2024/01/14 19:14:05;;;;;;;15.60;8.90;;;;;;;3.83;61.70;97578.50;231681;199;154678;-64
2024/01/14 19:19:09;;;;;;;;;;;;;;;3.81;61.71;97581.26;231626;204;140411;-64
2024/01/14 19:24:12;;;;;;;14.20;8.80;;;;;;;3.81;61.77;97584.05;231606;197;138525;-63
2024/01/14 19:29:20;;;;;;;13.90;8.40;;;;;;;3.82;61.76;97584.52;231617;205;153763;-62
2024/01/14 19:34:24;;;;;;;14.40;8.20;;;;;;;3.82;61.77;97586.28;231810;201;137930;-62
2024/01/14 19:39:28;;;;;;;12.40;7.80;;;;;;;3.81;61.68;97582.65;231690;205;137238;-61
2024/01/14 19:44:32;;;;;;;16.20;8.20;;;;;;;3.83;61.82;97579.36;231619;205;153337;-62
2024/01/14 19:49:35;;;;;;;14.80;8.60;;;;;;;3.88;61.76;97576.31;231581;203;138344;-63
2024/01/14 19:54:38;;;;;;;247.70;167.30;;;;;;;3.89;61.92;97571.88;231512;206;138369;-60
2024/01/14 19:59:42;;;;;;;27.90;17.40;;;;;;;4.10;64.19;97563.40;231727;198;153414;-63
2024/01/14 20:04:45;;;;;;;19.50;11.30;;;;;;;4.12;61.85;97551.91;231847;205;137745;-62
2024/01/14 20:09:49;;;;;;;18.00;10.20;;;;;;;4.02;61.37;97548.23;231648;198;138478;-63
2024/01/14 20:14:53;;;;;;;19.00;10.40;;;;;;;3.95;61.08;97547.78;231679;197;153436;-62
2024/01/14 20:19:56;;;;;;;19.20;10.40;;;;;;;3.84;61.07;97544.78;231710;202;138321;-62
2024/01/14 20:24:59;;;;;;;17.30;9.70;;;;;;;3.77;61.00;97537.12;231809;204;137841;-62
2024/01/14 20:30:04;;;;;;;17.40;9.40;;;;;;;3.73;60.99;97531.40;231821;198;156027;-62
2024/01/14 20:35:11;;;;;;;16.60;9.60;;;;;;;3.75;60.91;97533.34;231768;197;137330;-62
2024/01/14 20:40:16;;;;;;;14.80;9.40;;;;;;;3.77;60.82;97527.79;231707;206;137815;-61
2024/01/14 20:45:20;;;;;;;15.50;9.10;;;;;;;3.76;60.64;97520.52;231540;198;153152;-62
2024/01/14 20:50:23;;;;;;;16.30;8.50;;;;;;;3.74;60.54;97518.67;231538;205;140802;-62
2024/01/14 20:55:27;;;;;;;15.90;9.40;;;;;;;3.76;60.62;97513.29;231898;204;137503;-63
2024/01/14 21:00:31;;;;;;;15.70;9.10;;;;;;;3.77;60.50;97513.05;232019;201;153375;-62
2024/01/14 21:05:34;;;;;;;16.10;8.70;;;;;;;3.78;60.35;97509.65;231723;198;137820;-62
2024/01/14 21:10:37;;;;;;;13.70;8.60;;;;;;;3.80;60.33;97502.17;231809;202;137781;-62
2024/01/14 21:15:40;;;;;;;13.30;8.00;;;;;;;3.81;60.03;97496.38;231743;205;152955;-62
2024/01/14 21:20:43;;;;;;;12.80;8.20;;;;;;;3.77;60.26;97490.77;231856;199;137912;-62
2024/01/14 21:25:47;;;;;;;13.10;8.20;;;;;;;3.79;60.27;97485.44;231697;198;137636;-63
2024/01/14 21:30:50;;;;;;;13.50;8.30;;;;;;;3.82;60.25;97483.14;231767;198;154261;-63
2024/01/14 21:35:54;;;;;;;12.70;8.50;;;;;;;3.78;60.16;97478.83;231745;203;138146;-62
2024/01/14 21:40:57;;;;;;;13.00;8.00;;;;;;;3.71;60.38;97479.08;231855;198;137634;-62
2024/01/14 21:46:05;;;;;;;13.20;7.70;;;;;;;3.69;60.45;97471.61;231820;204;155430;-63
2024/01/14 21:51:09;;;;;;;13.90;8.10;;;;;;;3.66;60.52;97467.11;231588;198;141723;-61
2024/01/14 21:56:12;;;;;;;15.40;8.90;;;;;;;3.66;60.48;97460.96;231338;202;138713;-62
2024/01/14 22:01:15;;;;;;;13.40;8.40;;;;;;;3.63;60.40;97459.38;231719;205;153576;-62
2024/01/14 22:06:19;;;;;;;12.50;7.90;;;;;;;3.64;60.45;97454.77;231722;198;141924;-63
2024/01/14 22:11:22;;;;;;;14.50;8.40;;;;;;;3.66;60.41;97449.52;231709;198;138543;-63
2024/01/14 22:16:25;;;;;;;16.10;8.10;;;;;;;3.65;60.35;97439.77;231669;205;153256;-61
2024/01/14 22:21:33;;;;;;;14.20;8.00;;;;;;;3.61;60.27;97431.61;231870;198;137539;-62
2024/01/14 22:26:36;;;;;;;13.10;7.90;;;;;;;3.57;60.34;97422.73;231766;201;138397;-62
2024/01/14 22:31:40;;;;;;;13.90;8.00;;;;;;;3.60;60.30;97412.91;231768;198;154086;-63
2024/01/14 22:36:44;;;;;;;11.70;7.20;;;;;;;3.62;59.99;97401.92;231720;198;139316;-62
2024/01/14 22:41:47;;;;;;;11.80;7.20;;;;;;;3.57;59.91;97392.21;231825;204;138221;-63
2024/01/14 22:46:51;;;;;;;13.80;6.80;;;;;;;3.57;60.05;97383.80;231771;202;153080;-63
2024/01/14 22:51:54;;;;;;;11.30;6.70;;;;;;;3.55;59.91;97375.67;231673;198;138776;-66
2024/01/14 22:56:57;;;;;;;11.60;7.50;;;;;;;3.57;59.91;97367.50;231843;201;137627;-62
2024/01/14 23:02:05;;;;;;;11.20;6.70;;;;;;;3.58;59.85;97360.77;231640;198;153016;-63
2024/01/14 23:07:09;;;;;;;11.00;6.40;;;;;;;3.58;59.57;97355.33;231772;198;137825;-62
2024/01/14 23:12:13;;;;;;;10.30;6.40;;;;;;;3.53;59.47;97350.89;231640;202;137407;-63
2024/01/14 23:17:16;;;;;;;10.70;6.10;;;;;;;3.49;59.71;97343.59;231557;205;154112;-63
2024/01/14 23:22:19;;;;;;;11.10;5.70;;;;;;;3.49;59.48;97333.23;230512;199;139295;-62
2024/01/14 23:27:23;;;;;;;8.60;5.50;;;;;;;3.51;59.61;97322.79;231631;198;137503;-62
2024/01/14 23:32:26;;;;;;;9.50;5.80;;;;;;;3.53;59.35;97312.13;231650;200;153399;-62
2024/01/14 23:37:30;;;;;;;9.70;5.90;;;;;;;3.53;59.17;97298.98;231970;197;137850;-62